sensor_id;sensor_type;location;lat;lon;timestamp;pressure;altitude;pressure_sealevel;temperature;humidity
21545;BME280;10933;50.754;11.508;2024-01-10T00:02:06;101431.06;;;-12.15;100.00
21545;BME280;10933;50.754;11.508;2024-01-10T00:04:32;101424.31;;;-12.21;100.00
21545;BME280;10933;50.754;11.508;2024-01-10T00:06:58;101433.16;;;-12.25;100.00
21545;BME280;10933;50.754;11.508;2024-01-10T00:09:24;101429.16;;;-12.12;100.00
21545;BME280;10933;50.754;11.508;2024-01-10T00:11:50;101421.50;;;-12.15;100.00
21545;BME280;10933;50.754;11.508;2024-01-10T00:14:16;101419.03;;;-12.18;100.00
21545;BME280;10933;50.754;11.508;2024-01-10T00:16:43;101429.03;;;-12.09;100.00
21545;BME280;10933;50.754;11.508;2024-01-10T00:19:09;101425.91;;;-12.17;100.00
21545;BME280;10933;50.754;11.508;2024-01-10T00:21:35;101433.88;;;-12.22;100.00
21545;BME280;10933;50.754;11.508;2024-01-10T00:24:02;101421.78;;;-12.44;100.00
21545;BME280;10933;50.754;11.508;2024-01-10T00:26:28;101424.06;;;-12.37;100.00
21545;BME280;10933;50.754;11.508;2024-01-10T00:28:54;101430.00;;;-12.33;100.00
21545;BME280;10933;50.754;11.508;2024-01-10T00:31:20;101431.34;;;-12.23;100.00
21545;BME280;10933;50.754;11.508;2024-01-10T00:33:46;101421.44;;;-12.59;100.00
21545;BME280;10933;50.754;11.508;2024-01-10T00:36:12;101425.06;;;-12.18;100.00
21545;BME280;10933;50.754;11.508;2024-01-10T00:38:38;101435.56;;;-11.99;100.00
21545;BME280;10933;50.754;11.508;2024-01-10T00:41:04;101426.69;;;-12.15;100.00
21545;BME280;10933;50.754;11.508;2024-01-10T00:43:30;101420.31;;;-12.08;100.00
21545;BME280;10933;50.754;11.508;2024-01-10T00:45:56;101410.47;;;-12.22;100.00
21545;BME280;10933;50.754;11.508;2024-01-10T00:48:22;101419.84;;;-12.39;100.00
21545;BME280;10933;50.754;11.508;2024-01-10T00:50:48;101417.78;;;-12.09;100.00
21545;BME280;10933;50.754;11.508;2024-01-10T00:53:15;101415.84;;;-12.26;100.00
21545;BME280;10933;50.754;11.508;2024-01-10T00:55:41;101419.13;;;-11.99;100.00
21545;BME280;10933;50.754;11.508;2024-01-10T00:58:07;101425.28;;;-12.02;100.00
21545;BME280;10933;50.754;11.508;2024-01-10T01:00:33;101409.78;;;-12.49;100.00
21545;BME280;10933;50.754;11.508;2024-01-10T01:02:59;101417.84;;;-11.89;100.00
21545;BME280;10933;50.754;11.508;2024-01-10T01:05:25;101415.13;;;-11.66;100.00
21545;BME280;10933;50.754;11.508;2024-01-10T01:07:51;101419.34;;;-11.63;100.00
21545;BME280;10933;50.754;11.508;2024-01-10T01:10:17;101417.66;;;-11.84;100.00
21545;BME280;10933;50.754;11.508;2024-01-10T01:12:43;101410.16;;;-11.92;100.00
21545;BME280;10933;50.754;11.508;2024-01-10T01:15:09;101422.69;;;-11.80;100.00
21545;BME280;10933;50.754;11.508;2024-01-10T01:17:37;101418.69;;;-11.68;100.00
21545;BME280;10933;50.754;11.508;2024-01-10T01:20:03;101420.44;;;-11.48;100.00
21545;BME280;10933;50.754;11.508;2024-01-10T01:22:31;101404.13;;;-11.52;100.00
21545;BME280;10933;50.754;11.508;2024-01-10T01:24:57;101408.41;;;-11.51;100.00
21545;BME280;10933;50.754;11.508;2024-01-10T01:27:23;101410.81;;;-11.67;100.00
21545;BME280;10933;50.754;11.508;2024-01-10T01:29:49;101412.44;;;-11.44;100.00
21545;BME280;10933;50.754;11.508;2024-01-10T01:32:15;101420.38;;;-11.26;100.00
21545;BME280;10933;50.754;11.508;2024-01-10T01:34:42;101424.53;;;-11.02;100.00
21545;BME280;10933;50.754;11.508;2024-01-10T01:37:08;101413.34;;;-11.24;100.00
21545;BME280;10933;50.754;11.508;2024-01-10T01:39:34;101415.50;;;-11.14;100.00
21545;BME280;10933;50.754;11.508;2024-01-10T01:42:00;101408.38;;;-11.31;100.00
21545;BME280;10933;50.754;11.508;2024-01-10T01:44:26;101388.69;;;-11.36;100.00
21545;BME280;10933;50.754;11.508;2024-01-10T01:46:52;101392.41;;;-11.03;100.00
21545;BME280;10933;50.754;11.508;2024-01-10T01:49:18;101394.81;;;-10.98;100.00
21545;BME280;10933;50.754;11.508;2024-01-10T01:51:45;101393.81;;;-10.95;100.00
21545;BME280;10933;50.754;11.508;2024-01-10T01:54:11;101382.22;;;-11.27;100.00
21545;BME280;10933;50.754;11.508;2024-01-10T01:56:38;101376.63;;;-11.59;100.00
21545;BME280;10933;50.754;11.508;2024-01-10T01:59:05;101365.25;;;-11.77;100.00
21545;BME280;10933;50.754;11.508;2024-01-10T02:01:31;101372.66;;;-11.47;100.00
21545;BME280;10933;50.754;11.508;2024-01-10T02:03:57;101381.06;;;-11.41;100.00
21545;BME280;10933;50.754;11.508;2024-01-10T02:06:24;101376.34;;;-11.12;100.00
21545;BME280;10933;50.754;11.508;2024-01-10T02:08:50;101376.47;;;-11.15;100.00
21545;BME280;10933;50.754;11.508;2024-01-10T02:11:18;101379.41;;;-11.23;100.00
21545;BME280;10933;50.754;11.508;2024-01-10T02:13:44;101378.44;;;-11.20;100.00
21545;BME280;10933;50.754;11.508;2024-01-10T02:16:11;101372.34;;;-11.01;100.00
21545;BME280;10933;50.754;11.508;2024-01-10T02:18:38;101371.31;;;-10.78;100.00
21545;BME280;10933;50.754;11.508;2024-01-10T02:21:04;101362.06;;;-10.85;100.00
21545;BME280;10933;50.754;11.508;2024-01-10T02:23:30;101364.66;;;-10.85;100.00
21545;BME280;10933;50.754;11.508;2024-01-10T02:25:56;101366.47;;;-10.68;100.00
21545;BME280;10933;50.754;11.508;2024-01-10T02:28:23;101369.19;;;-10.88;100.00
21545;BME280;10933;50.754;11.508;2024-01-10T02:30:50;101373.38;;;-10.67;100.00
21545;BME280;10933;50.754;11.508;2024-01-10T02:33:16;101366.34;;;-11.03;100.00
21545;BME280;10933;50.754;11.508;2024-01-10T02:35:42;101369.16;;;-10.70;100.00
21545;BME280;10933;50.754;11.508;2024-01-10T02:38:09;101361.63;;;-10.94;100.00
21545;BME280;10933;50.754;11.508;2024-01-10T02:40:35;101361.00;;;-10.81;100.00
21545;BME280;10933;50.754;11.508;2024-01-10T02:43:01;101363.47;;;-10.78;100.00
21545;BME280;10933;50.754;11.508;2024-01-10T02:45:27;101359.72;;;-10.53;100.00
21545;BME280;10933;50.754;11.508;2024-01-10T02:47:53;101372.97;;;-10.95;100.00
21545;BME280;10933;50.754;11.508;2024-01-10T02:50:19;101363.25;;;-11.31;100.00
21545;BME280;10933;50.754;11.508;2024-01-10T02:52:45;101360.66;;;-10.92;100.00
21545;BME280;10933;50.754;11.508;2024-01-10T02:55:11;101361.34;;;-10.70;100.00
21545;BME280;10933;50.754;11.508;2024-01-10T02:57:37;101361.28;;;-10.49;100.00
21545;BME280;10933;50.754;11.508;2024-01-10T03:00:04;101361.00;;;-10.62;100.00
21545;BME280;10933;50.754;11.508;2024-01-10T03:02:31;101352.44;;;-10.28;100.00
21545;BME280;10933;50.754;11.508;2024-01-10T03:04:57;101359.47;;;-10.13;100.00
21545;BME280;10933;50.754;11.508;2024-01-10T03:07:23;101357.81;;;-10.50;100.00
21545;BME280;10933;50.754;11.508;2024-01-10T03:09:59;101349.84;;;-10.47;100.00
21545;BME280;10933;50.754;11.508;2024-01-10T03:12:25;101350.34;;;-10.38;100.00
21545;BME280;10933;50.754;11.508;2024-01-10T03:14:51;101344.59;;;-10.28;100.00
21545;BME280;10933;50.754;11.508;2024-01-10T03:17:17;101347.75;;;-10.57;100.00
21545;BME280;10933;50.754;11.508;2024-01-10T03:19:44;101342.06;;;-10.65;100.00
21545;BME280;10933;50.754;11.508;2024-01-10T03:22:10;101342.09;;;-10.48;100.00
21545;BME280;10933;50.754;11.508;2024-01-10T03:24:39;101335.38;;;-10.90;100.00
21545;BME280;10933;50.754;11.508;2024-01-10T03:27:06;101336.78;;;-11.02;100.00
21545;BME280;10933;50.754;11.508;2024-01-10T03:29:32;101345.91;;;-10.93;100.00
21545;BME280;10933;50.754;11.508;2024-01-10T03:31:58;101338.91;;;-10.91;100.00
21545;BME280;10933;50.754;11.508;2024-01-10T03:34:25;101337.06;;;-10.89;100.00
21545;BME280;10933;50.754;11.508;2024-01-10T03:36:51;101332.63;;;-10.87;100.00
21545;BME280;10933;50.754;11.508;2024-01-10T03:39:17;101332.47;;;-10.29;100.00
21545;BME280;10933;50.754;11.508;2024-01-10T03:41:43;101337.06;;;-9.99;100.00
21545;BME280;10933;50.754;11.508;2024-01-10T03:44:09;101333.84;;;-10.22;100.00
21545;BME280;10933;50.754;11.508;2024-01-10T03:46:35;101331.56;;;-10.64;100.00
21545;BME280;10933;50.754;11.508;2024-01-10T03:49:02;101332.22;;;-10.42;100.00
21545;BME280;10933;50.754;11.508;2024-01-10T03:51:28;101323.38;;;-10.75;100.00
21545;BME280;10933;50.754;11.508;2024-01-10T03:53:55;101324.50;;;-10.81;100.00
21545;BME280;10933;50.754;11.508;2024-01-10T03:56:21;101331.13;;;-10.74;100.00
21545;BME280;10933;50.754;11.508;2024-01-10T03:58:47;101335.19;;;-10.49;100.00
21545;BME280;10933;50.754;11.508;2024-01-10T04:01:16;101333.06;;;-10.41;100.00
21545;BME280;10933;50.754;11.508;2024-01-10T04:03:42;101324.75;;;-10.68;100.00
21545;BME280;10933;50.754;11.508;2024-01-10T04:06:08;101331.81;;;-10.51;100.00
21545;BME280;10933;50.754;11.508;2024-01-10T04:08:34;101335.13;;;-10.30;100.00
21545;BME280;10933;50.754;11.508;2024-01-10T04:11:01;101340.22;;;-9.93;100.00
21545;BME280;10933;50.754;11.508;2024-01-10T04:13:29;101334.16;;;-9.76;100.00
21545;BME280;10933;50.754;11.508;2024-01-10T04:15:55;101333.44;;;-10.31;100.00
21545;BME280;10933;50.754;11.508;2024-01-10T04:18:21;101331.78;;;-9.63;100.00
21545;BME280;10933;50.754;11.508;2024-01-10T04:20:49;101332.31;;;-9.74;100.00
21545;BME280;10933;50.754;11.508;2024-01-10T04:23:15;101327.09;;;-10.26;100.00
21545;BME280;10933;50.754;11.508;2024-01-10T04:25:41;101321.81;;;-10.24;100.00
21545;BME280;10933;50.754;11.508;2024-01-10T04:28:07;101317.28;;;-10.57;100.00
21545;BME280;10933;50.754;11.508;2024-01-10T04:30:33;101318.25;;;-10.06;100.00
21545;BME280;10933;50.754;11.508;2024-01-10T04:33:00;101329.41;;;-10.02;100.00
21545;BME280;10933;50.754;11.508;2024-01-10T04:35:26;101318.63;;;-9.79;100.00
21545;BME280;10933;50.754;11.508;2024-01-10T04:37:53;101323.25;;;-9.84;100.00
21545;BME280;10933;50.754;11.508;2024-01-10T04:40:19;101318.19;;;-10.22;100.00
21545;BME280;10933;50.754;11.508;2024-01-10T04:42:45;101317.88;;;-10.16;100.00
21545;BME280;10933;50.754;11.508;2024-01-10T04:45:12;101317.88;;;-10.33;100.00
21545;BME280;10933;50.754;11.508;2024-01-10T04:47:38;101316.66;;;-10.26;100.00
21545;BME280;10933;50.754;11.508;2024-01-10T04:50:04;101324.47;;;-10.09;100.00
21545;BME280;10933;50.754;11.508;2024-01-10T04:52:30;101318.41;;;-9.74;100.00
21545;BME280;10933;50.754;11.508;2024-01-10T04:54:56;101318.81;;;-9.99;100.00
21545;BME280;10933;50.754;11.508;2024-01-10T04:57:23;101315.25;;;-9.64;100.00
21545;BME280;10933;50.754;11.508;2024-01-10T04:59:49;101323.25;;;-9.34;100.00
21545;BME280;10933;50.754;11.508;2024-01-10T05:02:15;101317.03;;;-9.31;100.00
21545;BME280;10933;50.754;11.508;2024-01-10T05:04:41;101313.66;;;-9.33;100.00
21545;BME280;10933;50.754;11.508;2024-01-10T05:07:07;101310.72;;;-9.60;100.00
21545;BME280;10933;50.754;11.508;2024-01-10T05:09:33;101308.59;;;-9.36;100.00
21545;BME280;10933;50.754;11.508;2024-01-10T05:11:59;101305.06;;;-9.35;100.00
21545;BME280;10933;50.754;11.508;2024-01-10T05:14:25;101302.53;;;-9.37;100.00
21545;BME280;10933;50.754;11.508;2024-01-10T05:16:51;101305.13;;;-9.37;100.00
21545;BME280;10933;50.754;11.508;2024-01-10T05:19:19;101305.09;;;-9.53;100.00
21545;BME280;10933;50.754;11.508;2024-01-10T05:21:45;101311.44;;;-9.41;100.00
21545;BME280;10933;50.754;11.508;2024-01-10T05:24:11;101311.59;;;-9.44;100.00
21545;BME280;10933;50.754;11.508;2024-01-10T05:26:38;101310.31;;;-9.53;100.00
21545;BME280;10933;50.754;11.508;2024-01-10T05:29:04;101299.66;;;-9.32;100.00
21545;BME280;10933;50.754;11.508;2024-01-10T05:31:30;101308.44;;;-9.17;100.00
21545;BME280;10933;50.754;11.508;2024-01-10T05:33:56;101299.63;;;-8.99;100.00
21545;BME280;10933;50.754;11.508;2024-01-10T05:36:23;101305.59;;;-9.13;100.00
21545;BME280;10933;50.754;11.508;2024-01-10T05:38:49;101305.06;;;-9.20;100.00
21545;BME280;10933;50.754;11.508;2024-01-10T05:41:15;101309.56;;;-9.06;100.00
21545;BME280;10933;50.754;11.508;2024-01-10T05:43:41;101313.88;;;-9.05;100.00
21545;BME280;10933;50.754;11.508;2024-01-10T05:46:10;101305.53;;;-8.96;100.00
21545;BME280;10933;50.754;11.508;2024-01-10T05:48:36;101302.91;;;-8.96;100.00
21545;BME280;10933;50.754;11.508;2024-01-10T05:51:03;101302.91;;;-9.11;100.00
21545;BME280;10933;50.754;11.508;2024-01-10T05:53:29;101299.72;;;-9.01;100.00
21545;BME280;10933;50.754;11.508;2024-01-10T05:55:55;101299.72;;;-9.01;100.00
21545;BME280;10933;50.754;11.508;2024-01-10T05:58:21;101312.19;;;-9.06;100.00
21545;BME280;10933;50.754;11.508;2024-01-10T06:00:47;101308.97;;;-9.11;100.00
21545;BME280;10933;50.754;11.508;2024-01-10T06:03:13;101303.13;;;-9.65;100.00
21545;BME280;10933;50.754;11.508;2024-01-10T06:05:39;101298.78;;;-9.66;100.00
21545;BME280;10933;50.754;11.508;2024-01-10T06:08:06;101292.22;;;-9.73;100.00
21545;BME280;10933;50.754;11.508;2024-01-10T06:10:32;101304.09;;;-9.67;100.00
21545;BME280;10933;50.754;11.508;2024-01-10T06:12:58;101298.50;;;-9.60;100.00
21545;BME280;10933;50.754;11.508;2024-01-10T06:15:26;101298.38;;;-9.74;100.00
21545;BME280;10933;50.754;11.508;2024-01-10T06:17:52;101298.38;;;-9.74;100.00
21545;BME280;10933;50.754;11.508;2024-01-10T06:20:18;101302.47;;;-10.03;100.00
21545;BME280;10933;50.754;11.508;2024-01-10T06:22:45;101306.56;;;-9.31;100.00
21545;BME280;10933;50.754;11.508;2024-01-10T06:25:12;101304.09;;;-9.50;100.00
21545;BME280;10933;50.754;11.508;2024-01-10T06:27:38;101303.84;;;-9.45;100.00
21545;BME280;10933;50.754;11.508;2024-01-10T06:30:05;101301.50;;;-9.34;100.00
21545;BME280;10933;50.754;11.508;2024-01-10T06:32:33;101306.94;;;-9.22;100.00
21545;BME280;10933;50.754;11.508;2024-01-10T06:34:59;101300.75;;;-9.36;100.00
21545;BME280;10933;50.754;11.508;2024-01-10T06:37:27;101311.69;;;-9.45;100.00
21545;BME280;10933;50.754;11.508;2024-01-10T06:39:53;101307.00;;;-9.39;100.00
21545;BME280;10933;50.754;11.508;2024-01-10T06:42:20;101298.50;;;-9.60;100.00
21545;BME280;10933;50.754;11.508;2024-01-10T06:44:46;101308.75;;;-9.39;100.00
21545;BME280;10933;50.754;11.508;2024-01-10T06:47:12;101302.00;;;-9.43;100.00
21545;BME280;10933;50.754;11.508;2024-01-10T06:49:40;101305.16;;;-9.54;100.00
21545;BME280;10933;50.754;11.508;2024-01-10T06:52:06;101306.00;;;-9.54;100.00
21545;BME280;10933;50.754;11.508;2024-01-10T06:54:33;101312.41;;;-9.59;100.00
21545;BME280;10933;50.754;11.508;2024-01-10T06:57:01;101302.69;;;-10.25;100.00
21545;BME280;10933;50.754;11.508;2024-01-10T06:59:27;101305.50;;;-9.95;100.00
21545;BME280;10933;50.754;11.508;2024-01-10T07:01:54;101299.59;;;-9.81;100.00
21545;BME280;10933;50.754;11.508;2024-01-10T07:04:22;101301.63;;;-9.53;100.00
21545;BME280;10933;50.754;11.508;2024-01-10T07:06:50;101300.84;;;-9.55;100.00
21545;BME280;10933;50.754;11.508;2024-01-10T07:09:16;101306.53;;;-9.47;100.00
21545;BME280;10933;50.754;11.508;2024-01-10T07:11:48;101307.38;;;-9.46;100.00
21545;BME280;10933;50.754;11.508;2024-01-10T07:14:15;101306.69;;;-9.50;100.00
21545;BME280;10933;50.754;11.508;2024-01-10T07:16:42;101306.03;;;-9.71;100.00
21545;BME280;10933;50.754;11.508;2024-01-10T07:19:11;101312.00;;;-9.52;100.00
21545;BME280;10933;50.754;11.508;2024-01-10T07:21:40;101311.31;;;-9.22;100.00
21545;BME280;10933;50.754;11.508;2024-01-10T07:24:06;101312.06;;;-9.36;100.00
21545;BME280;10933;50.754;11.508;2024-01-10T07:26:34;101311.78;;;-9.31;100.00
21545;BME280;10933;50.754;11.508;2024-01-10T07:29:01;101301.16;;;-9.28;100.00
21545;BME280;10933;50.754;11.508;2024-01-10T07:31:29;101316.72;;;-9.09;100.00
21545;BME280;10933;50.754;11.508;2024-01-10T07:33:56;101311.94;;;-9.01;100.00
21545;BME280;10933;50.754;11.508;2024-01-10T07:36:24;101314.56;;;-9.01;100.00
21545;BME280;10933;50.754;11.508;2024-01-10T07:38:52;101312.72;;;-8.99;100.00
21545;BME280;10933;50.754;11.508;2024-01-10T07:41:19;101313.72;;;-9.02;100.00
21545;BME280;10933;50.754;11.508;2024-01-10T07:43:45;101320.63;;;-9.01;100.00
21545;BME280;10933;50.754;11.508;2024-01-10T07:46:11;101323.84;;;-9.29;100.00
21545;BME280;10933;50.754;11.508;2024-01-10T07:48:37;101316.28;;;-9.17;100.00
21545;BME280;10933;50.754;11.508;2024-01-10T07:51:03;101319.34;;;-8.94;100.00
21545;BME280;10933;50.754;11.508;2024-01-10T07:53:30;101321.66;;;-8.87;100.00
21545;BME280;10933;50.754;11.508;2024-01-10T07:55:56;101327.56;;;-9.00;100.00
21545;BME280;10933;50.754;11.508;2024-01-10T07:58:22;101334.06;;;-8.75;100.00
21545;BME280;10933;50.754;11.508;2024-01-10T08:00:49;101329.50;;;-8.87;100.00
21545;BME280;10933;50.754;11.508;2024-01-10T08:03:15;101335.97;;;-9.10;100.00
21545;BME280;10933;50.754;11.508;2024-01-10T08:05:44;101341.16;;;-9.26;100.00
21545;BME280;10933;50.754;11.508;2024-01-10T08:08:10;101340.03;;;-9.38;100.00
21545;BME280;10933;50.754;11.508;2024-01-10T08:10:40;101335.31;;;-9.82;100.00
21545;BME280;10933;50.754;11.508;2024-01-10T08:13:06;101330.78;;;-9.78;100.00
21545;BME280;10933;50.754;11.508;2024-01-10T08:15:33;101325.09;;;-10.03;100.00
21545;BME280;10933;50.754;11.508;2024-01-10T08:18:00;101328.31;;;-9.81;100.00
21545;BME280;10933;50.754;11.508;2024-01-10T08:20:29;101328.91;;;-9.93;100.00
21545;BME280;10933;50.754;11.508;2024-01-10T08:22:55;101331.09;;;-10.01;100.00
21545;BME280;10933;50.754;11.508;2024-01-10T08:25:21;101334.22;;;-10.12;100.00
21545;BME280;10933;50.754;11.508;2024-01-10T08:27:48;101339.97;;;-9.71;100.00
21545;BME280;10933;50.754;11.508;2024-01-10T08:30:15;101330.78;;;-9.95;100.00
21545;BME280;10933;50.754;11.508;2024-01-10T08:32:41;101342.75;;;-9.91;100.00
21545;BME280;10933;50.754;11.508;2024-01-10T08:35:08;101338.13;;;-9.69;100.00
21545;BME280;10933;50.754;11.508;2024-01-10T08:37:37;101344.03;;;-9.15;100.00
21545;BME280;10933;50.754;11.508;2024-01-10T08:40:03;101342.13;;;-9.29;100.00
21545;BME280;10933;50.754;11.508;2024-01-10T08:42:35;101345.00;;;-9.33;100.00
21545;BME280;10933;50.754;11.508;2024-01-10T08:45:02;101336.44;;;-9.70;100.00
21545;BME280;10933;50.754;11.508;2024-01-10T08:47:28;101329.94;;;-9.96;100.00
21545;BME280;10933;50.754;11.508;2024-01-10T08:49:57;101328.31;;;-9.81;100.00
21545;BME280;10933;50.754;11.508;2024-01-10T08:52:23;101332.75;;;-10.18;100.00
21545;BME280;10933;50.754;11.508;2024-01-10T08:54:49;101337.91;;;-10.16;100.00
21545;BME280;10933;50.754;11.508;2024-01-10T08:57:15;101334.75;;;-10.05;100.00
21545;BME280;10933;50.754;11.508;2024-01-10T08:59:42;101336.00;;;-9.95;100.00
21545;BME280;10933;50.754;11.508;2024-01-10T09:02:09;101339.59;;;-9.81;100.00
21545;BME280;10933;50.754;11.508;2024-01-10T09:04:35;101335.03;;;-9.42;100.00
21545;BME280;10933;50.754;11.508;2024-01-10T09:07:01;101330.78;;;-9.78;100.00
21545;BME280;10933;50.754;11.508;2024-01-10T09:09:27;101338.91;;;-9.84;100.00
21545;BME280;10933;50.754;11.508;2024-01-10T09:11:53;101329.31;;;-9.84;100.00
21545;BME280;10933;50.754;11.508;2024-01-10T09:14:20;101334.94;;;-9.74;100.00
21545;BME280;10933;50.754;11.508;2024-01-10T09:16:46;101329.53;;;-9.71;100.00
21545;BME280;10933;50.754;11.508;2024-01-10T09:19:12;101322.81;;;-8.93;100.00
21545;BME280;10933;50.754;11.508;2024-01-10T09:21:38;101330.84;;;-8.80;100.00
21545;BME280;10933;50.754;11.508;2024-01-10T09:24:05;101330.66;;;-8.77;100.00
21545;BME280;10933;50.754;11.508;2024-01-10T09:26:34;101331.56;;;-9.10;100.00
21545;BME280;10933;50.754;11.508;2024-01-10T09:29:01;101326.31;;;-9.26;100.00
21545;BME280;10933;50.754;11.508;2024-01-10T09:31:27;101324.41;;;-8.91;100.00
21545;BME280;10933;50.754;11.508;2024-01-10T09:33:53;101323.59;;;-8.75;100.00
21545;BME280;10933;50.754;11.508;2024-01-10T09:36:19;101332.03;;;-8.09;100.00
21545;BME280;10933;50.754;11.508;2024-01-10T09:38:45;101329.44;;;-7.94;100.00
21545;BME280;10933;50.754;11.508;2024-01-10T09:41:11;101325.16;;;-7.37;100.00
21545;BME280;10933;50.754;11.508;2024-01-10T09:43:39;101319.88;;;-7.65;100.00
21545;BME280;10933;50.754;11.508;2024-01-10T09:46:07;101329.75;;;-8.45;100.00
21545;BME280;10933;50.754;11.508;2024-01-10T09:48:34;101325.91;;;-7.49;100.00
21545;BME280;10933;50.754;11.508;2024-01-10T09:51:00;101328.06;;;-7.13;100.00
21545;BME280;10933;50.754;11.508;2024-01-10T09:53:27;101328.31;;;-6.34;100.00
21545;BME280;10933;50.754;11.508;2024-01-10T09:55:53;101327.06;;;-6.28;100.00
21545;BME280;10933;50.754;11.508;2024-01-10T09:58:26;101319.41;;;-6.72;100.00
21545;BME280;10933;50.754;11.508;2024-01-10T10:00:52;101314.88;;;-5.26;100.00
21545;BME280;10933;50.754;11.508;2024-01-10T10:03:19;101315.06;;;-4.54;100.00
21545;BME280;10933;50.754;11.508;2024-01-10T10:05:45;101305.75;;;-4.47;100.00
21545;BME280;10933;50.754;11.508;2024-01-10T10:08:13;101303.13;;;-4.84;100.00
21545;BME280;10933;50.754;11.508;2024-01-10T10:10:49;101303.22;;;-3.66;100.00
21545;BME280;10933;50.754;11.508;2024-01-10T10:13:28;101304.94;;;-2.21;100.00
21545;BME280;10933;50.754;11.508;2024-01-10T10:15:59;101274.38;;;-4.50;100.00
21545;BME280;10933;50.754;11.508;2024-01-10T10:18:27;101272.09;;;-5.41;100.00
21545;BME280;10933;50.754;11.508;2024-01-10T10:21:13;101280.06;;;-4.08;100.00
21545;BME280;10933;50.754;11.508;2024-01-10T10:23:41;101294.78;;;-2.91;100.00
21545;BME280;10933;50.754;11.508;2024-01-10T10:26:13;101275.19;;;-3.67;100.00
21545;BME280;10933;50.754;11.508;2024-01-10T10:28:45;101278.56;;;-3.20;100.00
21545;BME280;10933;50.754;11.508;2024-01-10T10:31:11;101267.00;;;-3.75;100.00
21545;BME280;10933;50.754;11.508;2024-01-10T10:33:38;101268.34;;;-4.63;100.00
21545;BME280;10933;50.754;11.508;2024-01-10T10:36:05;101283.84;;;-3.20;100.00
21545;BME280;10933;50.754;11.508;2024-01-10T10:38:31;101271.75;;;-3.91;100.00
21545;BME280;10933;50.754;11.508;2024-01-10T10:40:59;101264.09;;;-4.90;100.00
21545;BME280;10933;50.754;11.508;2024-01-10T10:43:26;101265.72;;;-5.13;100.00
21545;BME280;10933;50.754;11.508;2024-01-10T10:45:52;101270.19;;;-5.64;100.00
21545;BME280;10933;50.754;11.508;2024-01-10T10:48:21;101261.56;;;-5.28;100.00
21545;BME280;10933;50.754;11.508;2024-01-10T10:53:39;101255.81;;;-5.09;100.00
21545;BME280;10933;50.754;11.508;2024-01-10T10:56:08;101254.41;;;-5.39;100.00
21545;BME280;10933;50.754;11.508;2024-01-10T10:58:40;101257.16;;;-4.91;100.00
21545;BME280;10933;50.754;11.508;2024-01-10T11:01:08;101260.59;;;-4.78;100.00
21545;BME280;10933;50.754;11.508;2024-01-10T11:03:36;101257.19;;;-4.67;100.00
21545;BME280;10933;50.754;11.508;2024-01-10T11:06:04;101252.09;;;-4.57;100.00
21545;BME280;10933;50.754;11.508;2024-01-10T11:08:46;101251.53;;;-4.50;100.00
21545;BME280;10933;50.754;11.508;2024-01-10T11:17:26;101244.88;;;-4.42;100.00
21545;BME280;10933;50.754;11.508;2024-01-10T11:20:21;101229.19;;;-4.33;100.00
21545;BME280;10933;50.754;11.508;2024-01-10T11:25:21;101227.59;;;-4.11;100.00
21545;BME280;10933;50.754;11.508;2024-01-10T11:27:52;101223.25;;;-4.24;100.00
21545;BME280;10933;50.754;11.508;2024-01-10T11:30:39;101235.63;;;-3.33;100.00
21545;BME280;10933;50.754;11.508;2024-01-10T11:33:24;101228.47;;;-2.45;100.00
21545;BME280;10933;50.754;11.508;2024-01-10T11:36:16;101221.09;;;-2.62;100.00
21545;BME280;10933;50.754;11.508;2024-01-10T11:41:29;101211.13;;;-2.90;100.00
21545;BME280;10933;50.754;11.508;2024-01-10T11:46:50;101214.25;;;-3.19;100.00
21545;BME280;10933;50.754;11.508;2024-01-10T11:49:19;101213.31;;;-3.63;100.00
21545;BME280;10933;50.754;11.508;2024-01-10T11:51:47;101211.03;;;-3.67;100.00
21545;BME280;10933;50.754;11.508;2024-01-10T11:57:02;101222.84;;;-2.19;100.00
21545;BME280;10933;50.754;11.508;2024-01-10T11:59:29;101212.53;;;-2.86;100.00
21545;BME280;10933;50.754;11.508;2024-01-10T12:01:57;101208.88;;;-3.29;100.00
21545;BME280;10933;50.754;11.508;2024-01-10T12:04:23;101210.50;;;-3.05;100.00
21545;BME280;10933;50.754;11.508;2024-01-10T12:06:49;101200.59;;;-2.38;100.00
21545;BME280;10933;50.754;11.508;2024-01-10T12:09:15;101204.72;;;-1.61;100.00
21545;BME280;10933;50.754;11.508;2024-01-10T12:11:42;101189.13;;;-1.85;100.00
21545;BME280;10933;50.754;11.508;2024-01-10T12:14:11;101182.69;;;-2.13;100.00
21545;BME280;10933;50.754;11.508;2024-01-10T12:16:38;101188.84;;;-0.62;100.00
21545;BME280;10933;50.754;11.508;2024-01-10T12:19:04;101162.69;;;-2.48;100.00
21545;BME280;10933;50.754;11.508;2024-01-10T12:21:31;101163.81;;;-2.93;100.00
21545;BME280;10933;50.754;11.508;2024-01-10T12:23:57;101174.31;;;-2.71;100.00
21545;BME280;10933;50.754;11.508;2024-01-10T12:26:23;101170.41;;;-3.42;100.00
21545;BME280;10933;50.754;11.508;2024-01-10T12:28:57;101165.72;;;-3.50;100.00
21545;BME280;10933;50.754;11.508;2024-01-10T12:31:24;101165.34;;;-3.90;100.00
21545;BME280;10933;50.754;11.508;2024-01-10T12:33:52;101164.94;;;-3.18;100.00
21545;BME280;10933;50.754;11.508;2024-01-10T12:36:21;101162.47;;;-3.87;100.00
21545;BME280;10933;50.754;11.508;2024-01-10T12:38:47;101163.53;;;-3.34;100.00
21545;BME280;10933;50.754;11.508;2024-01-10T12:41:15;101157.69;;;-3.71;100.00
21545;BME280;10933;50.754;11.508;2024-01-10T12:43:43;101166.66;;;-3.85;100.00
21545;BME280;10933;50.754;11.508;2024-01-10T12:46:14;101164.91;;;-4.30;100.00